Time;durP1;ratioP1;P1;durP2;ratioP2;P2;SDS_P1;SDS_P2;PMS_P1;PMS_P2;Temp;Humidity;BMP_temperature;BMP_pressure;BME280_temperature;BME280_humidity;BME280_pressure;Samples;Min_cycle;Max_cycle;Signal;HPM_P1;HPM_P2
2022/11/30 00:01:35;;;;;;;0.10;0.10;;;4.80;99.90;3.60;97265.00;;;;5032982;28;20258;-70
2022/11/30 00:04:04;;;;;;;0.10;0.10;;;4.90;99.90;3.60;97295.00;;;;5032752;28;20221;-71
2022/11/30 00:06:32;;;;;;;0.10;0.10;;;4.80;99.90;3.70;97308.00;;;;5033021;28;20678;-70
2022/11/30 00:09:00;;;;;;;0.10;0.10;;;4.90;99.90;3.70;97303.00;;;;5030991;28;20206;-71
2022/11/30 00:11:28;;;;;;;0.10;0.10;;;4.90;99.90;3.70;97308.00;;;;5032561;28;20245;-70
2022/11/30 00:13:59;;;;;;;0.10;0.10;;;4.90;99.90;3.40;97295.00;;;;5032775;28;20211;-71
2022/11/30 00:16:29;;;;;;;0.10;0.10;;;4.90;99.90;3.60;97303.00;;;;5032613;28;20223;-71
2022/11/30 00:18:57;;;;;;;0.10;0.10;;;4.80;99.90;3.60;97306.00;;;;5047078;28;20300;-71
2022/11/30 00:21:25;;;;;;;0.10;0.10;;;4.90;99.90;3.60;97312.00;;;;5030601;28;20195;-70
2022/11/30 00:23:53;;;;;;;0.10;0.10;;;4.80;99.90;3.60;97298.00;;;;5032735;28;20226;-71
2022/11/30 00:26:22;;;;;;;0.10;0.10;;;4.80;99.90;3.50;97285.00;;;;5047708;28;20218;-71
2022/11/30 00:28:50;;;;;;;0.10;0.10;;;4.80;99.90;3.50;97290.00;;;;4994034;28;1085694;-71
2022/11/30 00:31:19;;;;;;;0.10;0.10;;;4.80;99.90;3.60;97304.00;;;;5033305;28;20262;-71
2022/11/30 00:33:49;;;;;;;0.10;0.10;;;4.80;99.90;3.60;97331.00;;;;5032883;28;20219;-70
2022/11/30 00:36:21;;;;;;;0.10;0.10;;;4.80;99.90;3.60;97332.00;;;;5033120;28;20284;-71
2022/11/30 00:38:51;;;;;;;0.10;0.10;;;4.80;99.90;3.60;97320.00;;;;5023876;28;20226;-70
2022/11/30 00:41:20;;;;;;;0.10;0.10;;;4.90;99.90;3.60;97323.00;;;;5029747;28;20195;-71
2022/11/30 00:43:48;;;;;;;0.10;0.10;;;4.90;99.90;3.60;97331.00;;;;5032805;28;20223;-70
2022/11/30 00:46:16;;;;;;;0.10;0.10;;;4.80;99.90;3.70;97335.00;;;;5032766;28;20257;-70
2022/11/30 00:48:45;;;;;;;0.10;0.10;;;4.80;99.90;3.60;97321.00;;;;5032183;28;20563;-71
2022/11/30 00:51:15;;;;;;;0.10;0.10;;;4.80;99.90;3.60;97321.00;;;;5033050;28;20206;-71
2022/11/30 00:53:43;;;;;;;0.00;0.00;;;4.80;99.90;3.60;97326.00;;;;5032523;28;20289;-70
2022/11/30 00:56:11;;;;;;;0.10;0.10;;;4.80;99.90;3.60;97333.00;;;;5031448;28;20249;-71
2022/11/30 00:58:40;;;;;;;0.10;0.10;;;4.90;99.90;3.70;97333.00;;;;5031742;28;20199;-71
2022/11/30 01:01:08;;;;;;;0.10;0.10;;;4.90;99.90;3.70;97340.00;;;;5032713;28;20206;-71
2022/11/30 01:03:37;;;;;;;0.00;0.00;;;4.90;99.90;3.80;97317.00;;;;5033029;28;20686;-71
2022/11/30 01:06:09;;;;;;;0.10;0.10;;;4.90;99.90;3.70;97256.00;;;;5032451;28;20207;-71
2022/11/30 01:08:39;;;;;;;0.10;0.10;;;4.90;99.90;3.70;97332.00;;;;5032325;28;20215;-72
2022/11/30 01:11:12;;;;;;;0.10;0.10;;;4.90;99.90;3.70;97336.00;;;;5031391;28;20199;-70
2022/11/30 01:13:41;;;;;;;0.10;0.10;;;4.90;99.90;3.70;97315.00;;;;5037261;28;20219;-70
2022/11/30 01:16:11;;;;;;;0.10;0.10;;;4.90;99.90;3.70;97334.00;;;;5035555;28;20233;-70
2022/11/30 01:18:40;;;;;;;0.10;0.10;;;4.90;99.90;3.70;97334.00;;;;5035772;28;20206;-71
2022/11/30 01:21:12;;;;;;;0.10;0.10;;;4.90;99.90;3.70;97305.00;;;;5031171;28;20744;-71
2022/11/30 01:23:42;;;;;;;0.10;0.10;;;4.90;99.90;3.70;97335.00;;;;5031740;28;20211;-73
2022/11/30 01:26:11;;;;;;;0.10;0.10;;;4.90;99.90;3.80;97320.00;;;;5032404;28;20199;-72
2022/11/30 01:28:39;;;;;;;0.10;0.10;;;5.00;99.90;3.70;97283.00;;;;5031410;28;20622;-71
2022/11/30 01:31:11;;;;;;;0.10;0.10;;;4.90;99.90;3.70;97266.00;;;;5031263;28;20206;-71
2022/11/30 01:33:41;;;;;;;0.00;0.00;;;4.90;99.90;3.60;97323.00;;;;5031781;28;20215;-70
2022/11/30 01:36:13;;;;;;;0.10;0.10;;;4.80;99.90;3.60;97320.00;;;;5034293;28;20217;-71
2022/11/30 01:38:46;;;;;;;0.00;0.00;;;4.90;99.90;3.70;97332.00;;;;5032776;28;20758;-71
2022/11/30 01:41:21;;;;;;;0.10;0.10;;;4.90;99.90;3.70;97324.00;;;;5031890;28;20698;-72
2022/11/30 01:43:52;;;;;;;0.10;0.10;;;4.90;99.90;3.70;97325.00;;;;5031703;28;20588;-71
2022/11/30 01:46:36;;;;;;;0.10;0.10;;;4.90;99.90;3.70;97323.00;;;;5031892;28;20256;-71
2022/11/30 01:49:14;;;;;;;0.10;0.10;;;4.90;99.90;3.60;97321.00;;;;5031410;28;20256;-70
2022/11/30 01:51:49;;;;;;;0.10;0.10;;;4.90;99.90;3.60;97310.00;;;;5031528;28;20257;-71
2022/11/30 01:54:23;;;;;;;0.10;0.10;;;4.90;99.90;3.60;97322.00;;;;5030558;28;20349;-71
2022/11/30 01:56:58;;;;;;;0.10;0.10;;;4.80;99.90;3.60;97315.00;;;;5026644;28;20700;-70
2022/11/30 01:59:27;;;;;;;0.10;0.10;;;4.80;99.90;3.60;97317.00;;;;5030948;28;20678;-70
2022/11/30 02:01:56;;;;;;;0.10;0.10;;;4.90;99.90;3.60;97319.00;;;;5030786;28;20265;-71
2022/11/30 02:04:29;;;;;;;0.10;0.10;;;4.80;99.90;3.50;97322.00;;;;5031436;28;20223;-71
2022/11/30 02:06:59;;;;;;;0.10;0.10;;;4.80;99.90;3.60;97326.00;;;;5031335;28;20206;-71
2022/11/30 02:09:31;;;;;;;0.10;0.10;;;4.80;99.90;3.50;97310.00;;;;5029369;28;20229;-71
2022/11/30 02:12:02;;;;;;;0.10;0.10;;;4.70;99.90;3.50;97312.00;;;;5031446;28;20195;-70
2022/11/30 02:14:39;;;;;;;0.10;0.10;;;4.70;99.90;3.60;97273.00;;;;5031394;28;20772;-71
2022/11/30 02:17:20;;;;;;;0.10;0.10;;;4.80;99.90;3.60;97229.00;;;;5031181;28;20711;-71
2022/11/30 02:20:29;;;;;;;0.10;0.10;;;4.80;99.90;3.50;97298.00;;;;5025445;28;20558;-71
2022/11/30 02:23:24;;;;;;;0.10;0.10;;;4.70;99.90;3.40;97306.00;;;;5014732;28;20211;-72
2022/11/30 02:26:08;;;;;;;0.10;0.10;;;4.70;99.90;3.40;97309.00;;;;5031513;28;20205;-71
2022/11/30 02:29:00;;;;;;;0.10;0.10;;;4.60;99.90;3.50;97336.00;;;;5030533;28;20635;-72
2022/11/30 02:31:38;;;;;;;0.10;0.10;;;4.70;99.90;3.40;97321.00;;;;5032155;28;20206;-71
2022/11/30 02:34:09;;;;;;;0.10;0.10;;;4.60;99.90;3.40;97330.00;;;;5031501;28;20276;-71
2022/11/30 02:36:38;;;;;;;0.10;0.10;;;4.60;99.90;3.40;97312.00;;;;5045054;28;20195;-71
2022/11/30 02:39:07;;;;;;;0.10;0.10;;;4.60;99.90;3.30;97313.00;;;;5028315;28;20739;-71
2022/11/30 02:41:37;;;;;;;0.10;0.10;;;4.60;99.90;3.30;97312.00;;;;5030769;28;20261;-71
2022/11/30 02:44:11;;;;;;;0.10;0.10;;;4.50;99.90;3.30;97312.00;;;;5035628;28;20214;-71
2022/11/30 02:46:59;;;;;;;0.10;0.10;;;4.60;99.90;3.30;97307.00;;;;5037356;28;20256;-71
2022/11/30 02:49:37;;;;;;;0.10;0.10;;;4.50;99.90;3.20;97311.00;;;;5034238;28;20199;-71
2022/11/30 02:52:08;;;;;;;0.10;0.10;;;4.50;99.90;3.30;97309.00;;;;5033847;28;20191;-71
2022/11/30 02:54:36;;;;;;;0.10;0.10;;;4.50;99.90;3.30;97312.00;;;;5034661;28;20219;-72
2022/11/30 02:57:04;;;;;;;0.10;0.10;;;4.50;99.90;3.30;97330.00;;;;5035260;28;20219;-71
2022/11/30 02:59:33;;;;;;;0.03;0.03;;;4.50;99.90;3.30;97318.00;;;;5033131;28;20199;-71
2022/11/30 03:02:01;;;;;;;0.10;0.10;;;4.50;99.90;3.30;97323.00;;;;5031455;28;20203;-71
2022/11/30 03:04:29;;;;;;;0.10;0.10;;;4.50;99.90;3.40;97335.00;;;;5030874;28;20215;-71
2022/11/30 03:06:58;;;;;;;0.10;0.10;;;4.60;99.90;3.40;97321.00;;;;5029850;28;20249;-72
2022/11/30 03:09:26;;;;;;;0.10;0.10;;;4.60;99.90;3.40;97336.00;;;;5030524;28;20206;-71
2022/11/30 03:11:54;;;;;;;0.10;0.10;;;4.60;99.90;3.40;97334.00;;;;5030996;28;20203;-71
2022/11/30 03:14:22;;;;;;;0.10;0.10;;;4.60;99.90;3.40;97323.00;;;;5030956;28;20223;-72
2022/11/30 03:16:51;;;;;;;0.10;0.10;;;4.70;99.90;3.40;97334.00;;;;5030839;28;20253;-71
2022/11/30 03:19:20;;;;;;;0.10;0.10;;;4.60;99.90;3.30;97293.00;;;;5035234;28;20713;-71
2022/11/30 03:21:48;;;;;;;0.10;0.10;;;4.60;99.90;3.30;97324.00;;;;5028748;28;20207;-72
2022/11/30 03:24:16;;;;;;;0.10;0.10;;;4.60;99.90;3.40;97341.00;;;;5023785;28;20222;-74
2022/11/30 03:26:44;;;;;;;0.10;0.10;;;4.60;99.90;3.40;97327.00;;;;5033437;28;20210;-71
2022/11/30 03:29:12;;;;;;;0.10;0.10;;;4.60;99.90;3.30;97325.00;;;;5034118;28;20206;-71
2022/11/30 03:31:40;;;;;;;0.10;0.10;;;4.60;99.90;3.30;97322.00;;;;5034508;28;20601;-70
2022/11/30 03:34:10;;;;;;;0.10;0.10;;;4.50;99.90;3.30;97325.00;;;;5033418;28;20219;-70
2022/11/30 03:36:38;;;;;;;0.10;0.10;;;4.50;99.90;3.30;97334.00;;;;5032670;28;20211;-71
2022/11/30 03:39:06;;;;;;;0.10;0.10;;;4.60;99.90;3.40;97326.00;;;;5033670;28;20223;-70
2022/11/30 03:41:34;;;;;;;0.10;0.10;;;4.60;99.90;3.30;97336.00;;;;5034592;28;20260;-70
2022/11/30 03:44:02;;;;;;;0.10;0.10;;;4.60;99.90;3.30;97332.00;;;;5033937;28;20730;-71
2022/11/30 03:46:30;;;;;;;0.10;0.10;;;4.60;99.90;3.30;97334.00;;;;5034051;28;20214;-70
2022/11/30 03:48:58;;;;;;;0.10;0.10;;;4.60;99.90;3.30;97331.00;;;;5033323;28;20325;-70
2022/11/30 03:51:28;;;;;;;0.10;0.10;;;4.60;99.90;3.30;97338.00;;;;5033561;28;20214;-71
2022/11/30 03:53:56;;;;;;;0.10;0.10;;;4.50;99.90;3.30;97330.00;;;;5032205;28;20211;-71
2022/11/30 03:56:24;;;;;;;0.10;0.10;;;4.60;99.90;3.40;97331.00;;;;5034035;28;20210;-71
2022/11/30 03:58:53;;;;;;;0.10;0.10;;;4.60;99.90;3.30;97337.00;;;;5033196;28;20231;-73
2022/11/30 04:01:22;;;;;;;0.10;0.10;;;4.60;99.90;3.20;97369.00;;;;5033813;28;20273;-73
2022/11/30 04:03:52;;;;;;;0.10;0.10;;;4.50;99.90;3.30;97350.00;;;;5033740;28;20306;-71
2022/11/30 04:06:21;;;;;;;0.10;0.10;;;4.50;99.90;3.20;97347.00;;;;5033963;28;20566;-72
2022/11/30 04:08:50;;;;;;;0.10;0.10;;;4.50;99.90;3.20;97344.00;;;;5031909;28;20206;-72
2022/11/30 04:11:19;;;;;;;0.10;0.10;;;4.40;99.90;3.20;97333.00;;;;5032529;28;20736;-71
2022/11/30 04:13:47;;;;;;;0.10;0.10;;;4.40;99.90;3.20;97333.00;;;;5033672;28;20756;-71
2022/11/30 04:16:15;;;;;;;0.10;0.10;;;4.40;99.90;3.20;97323.00;;;;5034215;28;20662;-71
2022/11/30 04:18:43;;;;;;;0.10;0.10;;;4.50;99.90;3.20;97330.00;;;;5031719;28;20335;-71
2022/11/30 04:21:11;;;;;;;0.00;0.00;;;4.40;99.90;3.20;97330.00;;;;5033630;28;20888;-71
2022/11/30 04:23:41;;;;;;;0.10;0.10;;;4.50;99.90;3.20;97334.00;;;;5033323;28;20245;-72
2022/11/30 04:26:14;;;;;;;0.10;0.10;;;4.50;99.90;3.20;97328.00;;;;5033526;28;20724;-71
2022/11/30 04:28:43;;;;;;;0.10;0.10;;;4.50;99.90;3.30;97345.00;;;;5032482;28;20211;-71
2022/11/30 04:31:11;;;;;;;0.10;0.10;;;4.50;99.90;3.30;97335.00;;;;5032803;28;20195;-70
2022/11/30 04:33:40;;;;;;;0.10;0.10;;;4.50;99.90;3.20;97279.00;;;;5032244;28;20636;-72
2022/11/30 04:36:18;;;;;;;0.10;0.10;;;4.50;99.90;3.20;97353.00;;;;5031609;28;20194;-70
2022/11/30 04:38:47;;;;;;;0.10;0.10;;;4.50;99.90;3.20;97343.00;;;;5030667;28;20227;-71
2022/11/30 04:41:16;;;;;;;0.10;0.10;;;4.50;99.90;3.20;97346.00;;;;5032580;28;20203;-70
2022/11/30 04:43:45;;;;;;;0.10;0.10;;;4.50;99.90;3.20;97337.00;;;;5031970;28;20365;-70
2022/11/30 04:46:13;;;;;;;0.10;0.10;;;4.40;99.90;3.10;97332.00;;;;5026851;28;20253;-71
2022/11/30 04:48:41;;;;;;;0.10;0.10;;;4.40;99.90;3.20;97344.00;;;;5018385;28;20307;-72
2022/11/30 04:51:10;;;;;;;0.10;0.10;;;4.40;99.90;3.20;97349.00;;;;5024057;28;20195;-71
2022/11/30 04:53:38;;;;;;;0.10;0.10;;;4.40;99.90;3.30;97354.00;;;;5031457;28;20266;-71
2022/11/30 04:56:08;;;;;;;0.10;0.10;;;4.50;99.90;3.20;97346.00;;;;5032856;28;20199;-71
2022/11/30 04:58:39;;;;;;;0.10;0.10;;;4.40;99.90;3.20;97346.00;;;;5012937;28;20222;-71
2022/11/30 05:01:07;;;;;;;0.10;0.10;;;4.40;99.90;3.20;97348.00;;;;5013888;28;20195;-70
2022/11/30 05:03:35;;;;;;;0.10;0.10;;;4.40;99.90;3.10;97353.00;;;;5012582;28;20627;-71
2022/11/30 05:06:04;;;;;;;0.10;0.10;;;4.30;99.90;3.10;97353.00;;;;5023865;28;20237;-71
2022/11/30 05:08:32;;;;;;;0.10;0.10;;;4.30;99.90;3.10;97356.00;;;;5025024;28;20668;-71
2022/11/30 05:11:00;;;;;;;0.10;0.10;;;4.30;99.90;3.10;97360.00;;;;5028110;28;20199;-71
2022/11/30 05:13:29;;;;;;;0.10;0.10;;;4.30;99.90;3.20;97370.00;;;;5031972;28;20269;-71
2022/11/30 05:15:58;;;;;;;0.10;0.10;;;4.40;99.90;3.20;97377.00;;;;5032440;28;20605;-71
2022/11/30 05:18:28;;;;;;;0.10;0.10;;;4.40;99.90;3.10;97368.00;;;;5031988;28;20211;-71
2022/11/30 05:20:56;;;;;;;0.10;0.10;;;4.40;99.90;3.20;97374.00;;;;5030996;28;20252;-71
2022/11/30 05:23:24;;;;;;;0.10;0.10;;;4.40;99.90;3.10;97371.00;;;;5032145;28;20226;-71
2022/11/30 05:25:52;;;;;;;0.10;0.10;;;4.40;99.90;3.10;97374.00;;;;5021346;28;20549;-70
2022/11/30 05:28:20;;;;;;;0.10;0.10;;;4.40;99.90;3.10;97378.00;;;;5015067;28;20288;-70
2022/11/30 05:30:48;;;;;;;0.10;0.10;;;4.40;99.90;3.10;97364.00;;;;5032115;28;20673;-70
2022/11/30 05:33:18;;;;;;;0.10;0.10;;;4.30;99.90;3.20;97373.00;;;;5031656;28;20779;-70
2022/11/30 05:35:46;;;;;;;0.10;0.10;;;4.40;99.90;3.10;97375.00;;;;5030526;28;20663;-73
2022/11/30 05:38:14;;;;;;;0.05;0.05;;;4.40;99.90;3.10;97366.00;;;;5031010;28;20191;-72
2022/11/30 05:40:42;;;;;;;0.10;0.10;;;4.30;99.90;3.10;97368.00;;;;5032252;28;20191;-72
2022/11/30 05:43:11;;;;;;;0.10;0.10;;;4.30;99.90;3.10;97367.00;;;;5032303;28;20249;-70
2022/11/30 05:45:39;;;;;;;0.10;0.10;;;4.30;99.90;3.10;97385.00;;;;5030603;28;20587;-71
2022/11/30 05:48:08;;;;;;;0.10;0.10;;;4.30;99.90;3.10;97386.00;;;;5031714;28;20253;-72
2022/11/30 05:50:37;;;;;;;0.10;0.10;;;4.40;99.90;3.10;97372.00;;;;5031880;28;20195;-71
2022/11/30 05:53:06;;;;;;;0.10;0.10;;;4.30;99.90;3.00;97371.00;;;;5030251;28;20253;-71
2022/11/30 05:55:34;;;;;;;0.10;0.10;;;4.30;99.90;3.10;97376.00;;;;5031793;28;20195;-71
2022/11/30 05:58:02;;;;;;;0.10;0.10;;;4.30;99.90;3.10;97380.00;;;;5031332;28;20191;-72
2022/11/30 06:00:30;;;;;;;0.10;0.10;;;4.30;99.90;3.10;97383.00;;;;5031534;28;20222;-70
2022/11/30 06:02:58;;;;;;;0.10;0.10;;;4.30;99.90;3.10;97331.00;;;;5031563;28;20214;-72
2022/11/30 06:05:28;;;;;;;0.10;0.10;;;4.30;99.90;3.10;97379.00;;;;5031203;28;20183;-72
2022/11/30 06:07:59;;;;;;;0.10;0.10;;;4.40;99.90;3.10;97386.00;;;;5031181;28;20187;-72
2022/11/30 06:10:28;;;;;;;0.10;0.10;;;4.30;99.90;3.10;97385.00;;;;5026962;28;20190;-73
2022/11/30 06:12:56;;;;;;;0.10;0.10;;;4.30;99.90;3.10;97380.00;;;;5031739;28;20210;-73
2022/11/30 06:15:24;;;;;;;0.10;0.10;;;4.30;99.90;3.10;97382.00;;;;5031107;28;20203;-72
2022/11/30 06:17:55;;;;;;;0.10;0.10;;;4.40;99.90;3.00;97384.00;;;;5030636;28;20199;-72
2022/11/30 06:20:23;;;;;;;0.10;0.10;;;4.30;99.90;3.00;97376.00;;;;5030012;28;20724;-72
2022/11/30 06:22:51;;;;;;;0.10;0.10;;;4.30;99.90;3.10;97382.00;;;;5029751;28;20207;-72
2022/11/30 06:25:20;;;;;;;0.10;0.10;;;4.30;99.90;3.00;97381.00;;;;5031575;28;20211;-73
2022/11/30 06:27:48;;;;;;;0.10;0.10;;;4.30;99.90;3.00;97377.00;;;;5027440;28;20199;-73
2022/11/30 06:30:17;;;;;;;0.10;0.10;;;4.30;99.90;3.00;97362.00;;;;5012016;28;20220;-73
2022/11/30 06:32:46;;;;;;;0.10;0.10;;;4.30;99.90;3.10;97377.00;;;;5031155;28;20250;-71
2022/11/30 06:35:14;;;;;;;0.10;0.10;;;4.30;99.90;3.10;97397.00;;;;5031462;28;20211;-73
2022/11/30 06:37:42;;;;;;;0.10;0.10;;;4.30;99.90;3.00;97394.00;;;;5031412;28;20253;-70
2022/11/30 06:40:13;;;;;;;0.10;0.10;;;4.30;99.90;3.00;97410.00;;;;5031529;28;20218;-73
2022/11/30 06:42:42;;;;;;;0.10;0.10;;;4.30;99.90;3.00;97389.00;;;;5021164;28;20745;-73
2022/11/30 06:45:11;;;;;;;0.10;0.10;;;4.30;99.90;3.00;97369.00;;;;5011466;28;20207;-73
2022/11/30 06:47:39;;;;;;;0.10;0.10;;;4.30;99.90;3.00;97379.00;;;;5011000;28;20246;-73
2022/11/30 06:50:08;;;;;;;0.10;0.10;;;4.30;99.90;3.00;97364.00;;;;5011823;28;20200;-71
2022/11/30 06:52:36;;;;;;;0.10;0.10;;;4.30;99.90;3.00;97374.00;;;;5011143;28;20204;-72
2022/11/30 06:55:06;;;;;;;0.10;0.10;;;4.30;99.90;3.00;97377.00;;;;5025295;28;20365;-72
2022/11/30 06:57:34;;;;;;;0.10;0.10;;;4.20;99.90;2.90;97381.00;;;;5024429;28;20200;-72
2022/11/30 07:00:07;;;;;;;0.10;0.10;;;4.20;99.90;3.00;97380.00;;;;5023341;28;20722;-72
2022/11/30 07:02:36;;;;;;;0.10;0.10;;;4.20;99.90;3.00;97379.00;;;;5035401;28;20210;-72
2022/11/30 07:05:05;;;;;;;0.10;0.10;;;4.20;99.90;3.00;97382.00;;;;5034983;28;20211;-72
2022/11/30 07:07:33;;;;;;;0.10;0.10;;;4.20;99.90;3.00;97380.00;;;;5034699;28;20203;-72
2022/11/30 07:10:01;;;;;;;0.10;0.10;;;4.20;99.90;3.00;97404.00;;;;5034461;28;20195;-73
2022/11/30 07:12:29;;;;;;;0.10;0.10;;;4.30;99.90;3.00;97377.00;;;;5017252;28;20254;-73
2022/11/30 07:14:57;;;;;;;0.10;0.10;;;4.20;99.90;3.00;97382.00;;;;5035688;28;20281;-73
2022/11/30 07:17:27;;;;;;;0.10;0.10;;;4.20;99.90;3.00;97392.00;;;;5035810;28;20684;-73
2022/11/30 07:19:55;;;;;;;0.10;0.10;;;4.30;99.90;3.10;97395.00;;;;5032756;28;20636;-73
2022/11/30 07:22:23;;;;;;;0.10;0.10;;;4.30;99.90;3.10;97394.00;;;;5019349;28;20199;-73
2022/11/30 07:27:37;;;;;;;0.10;0.10;;;4.30;99.90;3.10;97391.00;;;;5034883;28;20578;-72
2022/11/30 07:30:07;;;;;;;0.05;0.05;;;4.30;99.90;3.10;97396.00;;;;5035630;28;20214;-73
2022/11/30 07:32:36;;;;;;;0.10;0.10;;;4.40;99.90;3.10;97401.00;;;;5035361;28;20199;-73
2022/11/30 07:35:05;;;;;;;0.10;0.10;;;4.40;99.90;3.10;97399.00;;;;5034523;28;20215;-74
2022/11/30 07:37:33;;;;;;;0.10;0.10;;;4.40;99.90;3.10;97399.00;;;;5033770;28;20603;-73
2022/11/30 07:40:01;;;;;;;0.10;0.10;;;4.40;99.90;3.10;97391.00;;;;5034420;28;20211;-73
2022/11/30 07:42:30;;;;;;;0.10;0.10;;;4.40;99.90;3.10;97390.00;;;;5034314;28;20236;-74
2022/11/30 07:44:58;;;;;;;0.10;0.10;;;4.40;99.90;3.10;97396.00;;;;5034618;28;20577;-74
2022/11/30 07:47:27;;;;;;;0.10;0.10;;;4.30;99.90;3.10;97401.00;;;;5034278;28;20184;-73
2022/11/30 07:49:56;;;;;;;0.10;0.10;;;4.30;99.90;3.20;97401.00;;;;5025048;28;20623;-73
2022/11/30 07:52:24;;;;;;;0.10;0.10;;;4.40;99.90;3.20;97406.00;;;;5026099;28;20199;-73
2022/11/30 07:54:52;;;;;;;0.10;0.10;;;4.40;99.90;3.20;97404.00;;;;5034125;28;20615;-73
2022/11/30 07:57:20;;;;;;;0.10;0.10;;;4.40;99.90;3.10;97389.00;;;;5034282;28;20183;-74
2022/11/30 07:59:49;;;;;;;0.10;0.10;;;4.40;99.90;3.20;97406.00;;;;5034080;28;20219;-73
2022/11/30 08:02:17;;;;;;;0.10;0.10;;;4.50;99.90;3.20;97409.00;;;;5034402;28;20195;-73
2022/11/30 08:04:45;;;;;;;0.10;0.10;;;4.40;99.90;3.20;97395.00;;;;5033703;28;20250;-73
2022/11/30 08:07:16;;;;;;;0.10;0.10;;;4.40;99.90;3.10;97396.00;;;;5034409;28;20604;-74
2022/11/30 08:09:44;;;;;;;0.10;0.10;;;4.40;99.90;3.10;97401.00;;;;5033373;28;20694;-74
2022/11/30 08:12:12;;;;;;;0.00;0.00;;;4.40;99.90;3.10;97410.00;;;;5033919;28;20274;-74
2022/11/30 08:14:41;;;;;;;0.08;0.08;;;4.30;99.90;3.10;97412.00;;;;5032545;28;20226;-74
2022/11/30 08:17:29;;;;;;;0.10;0.10;;;4.30;99.90;3.10;97412.00;;;;5017618;28;20278;-73
2022/11/30 08:19:57;;;;;;;0.10;0.10;;;4.40;99.90;3.10;97421.00;;;;5033840;28;20231;-74
2022/11/30 08:22:26;;;;;;;0.10;0.10;;;4.40;99.90;3.10;97418.00;;;;5032909;28;20261;-74
2022/11/30 08:24:54;;;;;;;0.10;0.10;;;4.40;99.90;3.10;97417.00;;;;5034783;28;20222;-74
2022/11/30 08:27:22;;;;;;;0.10;0.10;;;4.40;99.90;3.20;97425.00;;;;5039225;28;20195;-74
2022/11/30 08:29:51;;;;;;;0.10;0.10;;;4.40;99.90;3.10;97342.00;;;;5038721;28;20246;-73
2022/11/30 08:32:19;;;;;;;0.10;0.10;;;4.30;99.90;3.10;97443.00;;;;5034832;28;20621;-74
2022/11/30 08:34:47;;;;;;;0.10;0.10;;;4.30;99.90;3.00;97436.00;;;;5033467;28;20207;-73
2022/11/30 08:37:16;;;;;;;0.10;0.10;;;4.30;99.90;2.90;97434.00;;;;5033841;28;20193;-73
2022/11/30 08:39:45;;;;;;;0.10;0.10;;;4.20;99.90;3.00;97434.00;;;;5033027;28;20187;-73
2022/11/30 08:42:13;;;;;;;0.10;0.10;;;4.20;99.90;3.00;97445.00;;;;5033321;28;20203;-74
2022/11/30 08:44:42;;;;;;;0.10;0.10;;;4.20;99.90;3.00;97452.00;;;;5033149;28;20214;-74
2022/11/30 08:47:10;;;;;;;0.10;0.10;;;4.20;99.90;3.00;97431.00;;;;5033919;28;20619;-74
2022/11/30 08:49:38;;;;;;;0.10;0.10;;;4.20;99.90;3.00;97439.00;;;;5032794;28;20195;-74
2022/11/30 08:52:06;;;;;;;0.10;0.10;;;4.20;99.90;3.00;97454.00;;;;5034600;28;20564;-74
2022/11/30 08:54:51;;;;;;;0.10;0.10;;;4.20;99.90;3.00;97453.00;;;;5034523;28;20214;-72
2022/11/30 08:57:21;;;;;;;0.03;0.03;;;4.30;99.90;2.90;97460.00;;;;5034236;28;20197;-72
2022/11/30 08:59:49;;;;;;;0.10;0.10;;;4.30;99.90;3.10;97454.00;;;;5034830;28;20713;-74
2022/11/30 09:02:19;;;;;;;0.10;0.10;;;4.30;99.90;3.10;97435.00;;;;5033507;28;20692;-72
2022/11/30 09:04:49;;;;;;;0.10;0.10;;;4.30;99.90;3.20;97442.00;;;;5032825;28;20211;-74
2022/11/30 09:07:18;;;;;;;0.10;0.10;;;4.40;99.90;3.20;97465.00;;;;5032643;28;20610;-75
2022/11/30 09:09:47;;;;;;;0.10;0.10;;;4.40;99.90;3.20;97463.00;;;;5032715;28;20191;-72
2022/11/30 09:12:16;;;;;;;0.10;0.10;;;4.40;99.90;3.30;97465.00;;;;5032917;28;20613;-72
2022/11/30 09:14:45;;;;;;;0.10;0.10;;;4.50;99.90;3.30;97472.00;;;;5032491;28;20576;-73
2022/11/30 09:17:17;;;;;;;0.10;0.10;;;4.50;99.90;3.40;97462.00;;;;5032820;28;20195;-71
2022/11/30 09:19:46;;;;;;;0.10;0.10;;;4.60;99.90;3.40;97468.00;;;;5031854;28;20188;-72
2022/11/30 09:22:14;;;;;;;0.10;0.10;;;4.70;99.90;3.50;97483.00;;;;5025849;28;20250;-72
2022/11/30 09:24:42;;;;;;;0.10;0.10;;;4.70;99.90;3.70;97493.00;;;;5020580;28;20215;-74
2022/11/30 09:27:10;;;;;;;0.10;0.10;;;4.80;99.90;3.60;97477.00;;;;5032571;28;20261;-74
2022/11/30 09:29:39;;;;;;;0.10;0.10;;;4.80;99.90;3.70;97460.00;;;;5031673;28;20282;-72
2022/11/30 09:32:07;;;;;;;0.10;0.10;;;4.90;99.90;3.80;97457.00;;;;5032400;28;20273;-72
2022/11/30 09:34:36;;;;;;;0.10;0.10;;;4.90;99.90;3.80;97465.00;;;;5032200;28;20211;-72
2022/11/30 09:37:04;;;;;;;0.10;0.10;;;5.00;99.90;3.80;97464.00;;;;5032638;28;20241;-72
2022/11/30 09:39:32;;;;;;;0.10;0.10;;;5.00;99.90;3.80;97458.00;;;;5031374;28;20201;-74
2022/11/30 09:42:29;;;;;;;0.10;0.10;;;5.00;99.90;3.90;97459.00;;;;5032096;28;20273;-72
2022/11/30 09:45:08;;;;;;;0.10;0.10;;;5.00;99.90;4.00;97464.00;;;;5033183;28;20215;-71
2022/11/30 09:48:28;;;;;;;0.10;0.10;;;5.10;99.90;4.20;97458.00;;;;5032139;28;20670;-74
2022/11/30 09:51:03;;;;;;;0.03;0.03;;;5.30;99.90;4.40;97464.00;;;;5019910;28;20265;-72
2022/11/30 09:53:41;;;;;;;0.10;0.10;;;5.50;99.90;4.30;97474.00;;;;5032434;28;20222;-72
2022/11/30 09:56:21;;;;;;;0.05;0.05;;;5.60;99.90;4.50;97464.00;;;;5031330;28;20253;-72
2022/11/30 09:58:57;;;;;;;0.10;0.10;;;5.60;99.90;4.50;97412.00;;;;5016441;28;20269;-72
2022/11/30 10:01:27;;;;;;;0.10;0.10;;;5.60;99.90;4.50;97464.00;;;;5032431;28;20280;-72
2022/11/30 10:04:00;;;;;;;0.10;0.10;;;5.60;99.90;4.50;97412.00;;;;5032822;28;20290;-72
2022/11/30 10:06:43;;;;;;;0.10;0.10;;;5.70;99.90;4.50;97458.00;;;;5032712;28;20212;-72
2022/11/30 10:09:34;;;;;;;0.05;0.05;;;5.70;99.90;4.50;97450.00;;;;5032159;28;20554;-72
2022/11/30 10:12:09;;;;;;;0.10;0.10;;;5.60;99.90;4.50;97461.00;;;;5034433;28;20210;-72
2022/11/30 10:15:03;;;;;;;0.10;0.10;;;5.60;99.90;4.40;97453.00;;;;5032432;28;20218;-74
2022/11/30 10:17:45;;;;;;;0.10;0.10;;;5.60;99.90;4.40;97457.00;;;;5033301;28;20202;-73
2022/11/30 10:20:46;;;;;;;0.10;0.10;;;5.60;99.90;4.30;97438.00;;;;5037511;28;20199;-72
2022/11/30 10:23:35;;;;;;;0.10;0.10;;;5.50;99.90;4.30;97444.00;;;;5034717;28;20201;-71
2022/11/30 10:26:10;;;;;;;0.10;0.10;;;5.40;99.90;4.20;97445.00;;;;5033821;28;20257;-72
2022/11/30 10:28:50;;;;;;;0.10;0.10;;;5.40;99.90;4.20;97457.00;;;;5028222;28;20211;-74
2022/11/30 10:31:21;;;;;;;0.10;0.10;;;5.40;99.90;4.20;97445.00;;;;5031946;28;20207;-72
2022/11/30 10:33:55;;;;;;;0.10;0.10;;;5.40;99.90;4.10;97436.00;;;;5037161;28;20227;-71
2022/11/30 10:36:36;;;;;;;0.10;0.10;;;5.30;99.90;4.10;97444.00;;;;5037486;28;20199;-72
2022/11/30 10:39:14;;;;;;;0.10;0.10;;;5.30;99.90;4.10;97436.00;;;;5037300;28;20198;-72
2022/11/30 10:41:50;;;;;;;0.10;0.10;;;5.30;99.90;4.10;97448.00;;;;5034941;28;20281;-74
2022/11/30 10:44:26;;;;;;;0.10;0.10;;;5.30;99.90;4.10;97434.00;;;;5032850;28;20612;-72
2022/11/30 10:47:02;;;;;;;0.10;0.10;;;5.30;99.90;3.90;97434.00;;;;5033242;28;20201;-72
2022/11/30 10:49:35;;;;;;;0.10;0.10;;;5.30;99.90;4.30;97444.00;;;;5034599;28;20198;-72
2022/11/30 10:52:08;;;;;;;0.10;0.10;;;5.50;99.90;4.30;97434.00;;;;5035288;28;20187;-72
2022/11/30 10:54:37;;;;;;;0.10;0.10;;;5.50;99.90;4.30;97432.00;;;;5034832;28;20242;-72
2022/11/30 10:57:07;;;;;;;0.10;0.10;;;5.40;99.90;4.40;97457.00;;;;5026410;28;20202;-72
2022/11/30 10:59:44;;;;;;;0.10;0.10;;;5.50;99.90;4.30;97449.00;;;;5033020;28;20211;-72
2022/11/30 11:02:39;;;;;;;0.10;0.10;;;5.40;99.90;4.40;97458.00;;;;5035221;28;20734;-72
2022/11/30 11:05:17;;;;;;;0.05;0.05;;;5.50;99.90;4.50;97460.00;;;;5034946;28;20230;-72
2022/11/30 11:07:51;;;;;;;0.10;0.10;;;5.60;99.90;4.60;97400.00;;;;5034552;28;20233;-72
2022/11/30 11:10:24;;;;;;;0.10;0.10;;;5.70;99.90;4.40;97371.00;;;;5034761;28;20619;-72
2022/11/30 11:12:54;;;;;;;0.10;0.10;;;5.50;99.90;4.20;97463.00;;;;5034792;28;20195;-72
2022/11/30 11:15:25;;;;;;;0.10;0.10;;;5.40;99.90;4.20;97450.00;;;;5034777;28;20191;-72
2022/11/30 11:18:11;;;;;;;0.10;0.10;;;5.40;99.90;4.30;97444.00;;;;5034295;28;20226;-72
2022/11/30 11:20:42;;;;;;;0.10;0.10;;;5.40;99.90;4.20;97448.00;;;;5034912;28;20522;-72
2022/11/30 11:23:23;;;;;;;0.10;0.10;;;5.30;99.90;4.00;97455.00;;;;5034204;28;20219;-71
2022/11/30 11:25:53;;;;;;;0.10;0.10;;;5.20;99.90;4.00;97447.00;;;;5034400;28;20198;-71
2022/11/30 11:28:23;;;;;;;0.10;0.10;;;5.20;99.90;3.90;97442.00;;;;5033760;28;20733;-71
2022/11/30 11:30:55;;;;;;;0.10;0.10;;;5.10;99.90;3.90;97447.00;;;;5034236;28;20194;-72